Time;durP1;ratioP1;P1;durP2;ratioP2;P2;SDS_P1;SDS_P2;PMS_P1;PMS_P2;Temp;Humidity;BMP_temperature;BMP_pressure;BME280_temperature;BME280_humidity;BME280_pressure;Samples;Min_cycle;Max_cycle;Signal;HPM_P1;HPM_P2
2021/04/29 00:01:58;;;;;;;15.25;10.80;;;;;;;12.41;50.24;98906.84;10265918;28;20254;-71
2021/04/29 00:07:01;;;;;;;16.15;11.10;;;;;;;12.63;50.23;98899.88;10264787;28;20243;-71
2021/04/29 00:12:03;;;;;;;18.02;11.75;;;;;;;12.63;49.66;98889.09;10265453;28;20280;-71
2021/04/29 00:17:07;;;;;;;15.57;11.23;;;;;;;12.63;49.35;98874.78;10293669;28;20239;-71
2021/04/29 00:22:09;;;;;;;18.05;11.40;;;;;;;12.49;49.87;98879.06;10302150;28;20227;-71
2021/04/29 00:27:11;;;;;;;18.08;11.40;;;;;;;12.46;50.21;98868.63;10322479;28;20762;-71
2021/04/29 00:32:14;;;;;;;15.43;11.75;;;;;;;12.37;50.60;98862.44;10327513;28;20376;-71
2021/04/29 00:37:16;;;;;;;18.55;11.27;;;;;;;12.22;51.25;98864.94;10310480;28;20243;-71
2021/04/29 00:42:19;;;;;;;17.02;11.82;;;;;;;12.25;51.19;98858.38;10311574;28;20254;-70
2021/04/29 00:47:21;;;;;;;15.77;10.35;;;;;;;12.28;51.25;98864.28;10327104;28;20235;-71
2021/04/29 00:52:24;;;;;;;15.45;10.93;;;;;;;12.28;51.25;98864.28;10310619;28;20239;-71
2021/04/29 00:57:26;;;;;;;15.38;10.70;;;;;;;12.28;51.23;98866.97;10310179;28;20388;-73
2021/04/29 01:02:30;;;;;;;14.60;9.77;;;;;;;12.35;51.37;98878.75;10310348;28;20243;-73
2021/04/29 01:07:36;;;;;;;15.75;9.20;;;;;;;12.44;51.37;98884.13;10310600;28;20235;-71
2021/04/29 01:12:44;;;;;;;11.65;9.02;;;;;;;12.43;51.43;98888.66;10312209;28;20259;-71
2021/04/29 01:17:48;;;;;;;11.50;8.27;;;;;;;12.44;51.34;98881.41;10274177;28;20243;-71
2021/04/29 01:23:00;;;;;;;9.48;8.10;;;;;;;12.51;51.53;98882.41;10271263;28;20262;-71
2021/04/29 01:28:04;;;;;;;12.45;7.32;;;;;;;12.49;51.84;98893.34;10272203;28;20247;-71
2021/04/29 01:33:07;;;;;;;10.77;7.10;;;;;;;12.44;52.16;98894.88;10270481;28;20223;-71
2021/04/29 01:38:09;;;;;;;8.50;5.85;;;;;;;12.39;52.45;98895.41;10269107;28;20239;-71
2021/04/29 01:43:12;;;;;;;7.38;6.15;;;;;;;12.38;52.66;98889.16;10270880;28;20232;-71
2021/04/29 01:48:15;;;;;;;7.97;6.15;;;;;;;12.31;53.05;98887.34;10266783;28;20262;-71
2021/04/29 01:53:17;;;;;;;7.72;5.45;;;;;;;12.26;53.51;98889.66;10268092;28;20661;-71
2021/04/29 01:58:20;;;;;;;7.53;5.50;;;;;;;12.24;53.64;98887.16;10268155;28;20294;-71
2021/04/29 02:03:22;;;;;;;7.80;5.90;;;;;;;12.07;54.15;98885.53;10270299;28;20870;-71
2021/04/29 02:08:24;;;;;;;5.28;4.60;;;;;;;11.94;54.81;98892.25;10269087;28;20246;-71
2021/04/29 02:13:29;;;;;;;5.50;4.80;;;;;;;11.86;55.36;98876.09;10269366;28;20278;-71
2021/04/29 02:18:32;;;;;;;7.00;5.15;;;;;;;11.79;56.09;98879.63;10306759;28;20234;-72
2021/04/29 02:23:34;;;;;;;6.25;4.47;;;;;;;11.85;56.24;98887.88;10310325;28;20245;-71
2021/04/29 02:28:37;;;;;;;6.55;5.10;;;;;;;11.79;57.07;98893.09;10305057;28;20234;-71
2021/04/29 02:33:39;;;;;;;9.02;5.10;;;;;;;11.73;57.63;98882.00;10306798;28;20700;-72
2021/04/29 02:38:41;;;;;;;7.38;5.15;;;;;;;11.61;58.66;98885.19;10309326;28;20279;-71
2021/04/29 02:43:45;;;;;;;7.90;6.10;;;;;;;11.58;59.50;98889.06;10310130;28;20263;-72
2021/04/29 02:48:47;;;;;;;8.10;5.65;;;;;;;11.54;61.03;98885.00;10306996;28;20235;-72
2021/04/29 02:53:50;;;;;;;8.73;6.30;;;;;;;11.43;61.51;98888.03;10308095;28;20270;-72
2021/04/29 02:58:53;;;;;;;9.52;6.45;;;;;;;11.31;61.35;98878.63;10306649;28;20254;-72
2021/04/29 03:03:55;;;;;;;9.57;6.70;;;;;;;11.32;61.29;98885.66;10307651;28;20238;-71
2021/04/29 03:08:57;;;;;;;7.95;6.32;;;;;;;11.20;61.58;98877.91;10309695;28;20238;-71
2021/04/29 03:14:00;;;;;;;9.05;6.28;;;;;;;11.16;61.99;98873.91;10300227;28;20232;-71
2021/04/29 03:19:02;;;;;;;8.75;6.60;;;;;;;11.13;62.39;98879.56;10263399;28;20713;-72
2021/04/29 03:24:07;;;;;;;8.75;6.35;;;;;;;11.03;62.97;98885.06;10269259;28;20710;-71
2021/04/29 03:29:10;;;;;;;9.55;7.10;;;;;;;11.02;63.50;98874.47;10266386;28;20247;-72
2021/04/29 03:34:12;;;;;;;9.05;6.93;;;;;;;10.88;64.35;98880.47;10265578;28;20243;-71
2021/04/29 03:39:13;;;;;;;11.43;6.85;;;;;;;10.82;63.99;98877.44;10267384;28;20239;-71
2021/04/29 03:44:16;;;;;;;9.77;7.30;;;;;;;10.82;63.29;98872.06;10264948;28;20227;-71
2021/04/29 03:49:18;;;;;;;10.57;6.65;;;;;;;10.71;63.10;98880.44;10264267;28;20250;-71
2021/04/29 03:54:20;;;;;;;12.18;7.63;;;;;;;10.81;63.09;98877.63;10266129;28;20905;-71
2021/04/29 03:59:23;;;;;;;10.43;7.63;;;;;;;10.77;63.42;98882.44;10265460;28;20243;-71
2021/04/29 04:04:25;;;;;;;10.35;7.30;;;;;;;10.68;63.61;98880.75;10268353;28;20240;-71
2021/04/29 04:09:27;;;;;;;8.73;7.00;;;;;;;10.68;64.03;98875.38;10272764;28;20282;-71
2021/04/29 04:14:30;;;;;;;10.43;7.45;;;;;;;10.54;65.19;98884.06;10285197;28;20257;-71
2021/04/29 04:19:32;;;;;;;9.85;6.80;;;;;;;10.54;66.64;98878.69;10312605;28;20242;-71
2021/04/29 04:24:34;;;;;;;10.93;7.43;;;;;;;10.42;67.38;98888.84;10312347;28;20316;-71
2021/04/29 04:29:37;;;;;;;12.55;7.63;;;;;;;10.35;67.60;98883.28;10310414;28;20235;-71
2021/04/29 04:34:39;;;;;;;12.25;7.38;;;;;;;10.32;67.33;98878.22;10314311;28;20613;-71
2021/04/29 04:39:41;;;;;;;10.75;7.88;;;;;;;10.33;66.63;98881.75;10313004;28;20602;-71
2021/04/29 04:44:44;;;;;;;10.38;7.43;;;;;;;10.41;66.79;98875.59;10311198;28;20231;-71
2021/04/29 04:49:45;;;;;;;12.25;7.75;;;;;;;10.44;67.57;98889.53;10313878;28;20249;-71
2021/04/29 04:54:49;;;;;;;11.55;8.25;;;;;;;10.12;70.10;98888.34;10312462;28;20237;-71
2021/04/29 04:59:51;;;;;;;14.73;8.88;;;;;;;9.96;72.06;98896.28;10312873;28;20231;-71
2021/04/29 05:04:53;;;;;;;12.88;8.77;;;;;;;9.90;72.83;98896.88;10313491;28;20234;-73
2021/04/29 05:09:55;;;;;;;13.32;8.77;;;;;;;9.89;74.03;98896.06;10312256;28;20270;-73
2021/04/29 05:14:58;;;;;;;14.00;8.85;;;;;;;9.93;74.49;98902.81;10297585;28;20235;-72
2021/04/29 05:20:00;;;;;;;11.73;8.70;;;;;;;9.93;74.62;98905.47;10271827;28;20382;-71
2021/04/29 05:25:02;;;;;;;15.90;8.60;;;;;;;9.89;74.37;98905.94;10270163;28;20243;-71
2021/04/29 05:30:07;;;;;;;14.00;10.05;;;;;;;9.87;74.15;98907.94;10272373;28;21384;-72
2021/04/29 05:35:10;;;;;;;14.63;9.05;;;;;;;10.09;74.14;98910.13;10268094;28;20231;-71
2021/04/29 05:40:12;;;;;;;16.90;10.48;;;;;;;10.16;73.33;98899.59;10270726;28;20232;-73
2021/04/29 05:45:15;;;;;;;16.70;10.48;;;;;;;10.26;72.58;98902.19;10269127;28;20747;-71
2021/04/29 05:50:18;;;;;;;18.98;11.25;;;;;;;10.25;72.39;98897.81;10271328;28;20671;-72
2021/04/29 05:55:20;;;;;;;18.88;10.48;;;;;;;10.26;72.83;98897.66;10270163;28;20239;-71
2021/04/29 06:00:23;;;;;;;16.48;10.38;;;;;;;10.38;73.35;98907.09;10269777;28;20294;-71
2021/04/29 06:05:25;;;;;;;17.20;10.68;;;;;;;10.40;73.40;98904.28;10268887;28;20606;-71
2021/04/29 06:10:29;;;;;;;18.27;11.15;;;;;;;10.35;72.98;98904.75;10267514;28;20345;-71
2021/04/29 06:15:32;;;;;;;15.35;10.70;;;;;;;10.31;72.57;98906.09;10303126;28;20231;-71
2021/04/29 06:20:34;;;;;;;18.00;11.02;;;;;;;10.44;73.41;98907.47;10308509;28;20266;-71
2021/04/29 06:25:36;;;;;;;16.35;9.65;;;;;;;10.36;72.65;98892.16;10308804;28;20588;-72
2021/04/29 06:30:41;;;;;;;20.20;12.02;;;;;;;10.39;73.57;98903.44;10298248;28;20236;-72
2021/04/29 06:35:42;;;;;;;13.70;9.38;;;;;;;10.45;74.35;98909.16;10242850;28;20236;-71
2021/04/29 06:40:44;;;;;;;12.10;8.45;;;;;;;10.45;75.71;98903.78;10243052;28;20236;-71
2021/04/29 06:45:47;;;;;;;19.13;11.50;;;;;;;10.24;76.36;98907.69;10230574;28;20236;-71
2021/04/29 06:50:50;;;;;;;17.02;11.32;;;;;;;10.32;77.69;98917.66;10238797;28;20235;-71
2021/04/29 06:55:52;;;;;;;13.93;9.38;;;;;;;10.38;78.14;98914.31;10305129;28;20243;-71
2021/04/29 07:00:55;;;;;;;16.88;10.38;;;;;;;10.58;78.20;98926.50;10308873;28;20247;-71
2021/04/29 07:05:57;;;;;;;14.68;10.18;;;;;;;10.69;78.69;98909.28;10307850;28;20714;-71
2021/04/29 07:10:59;;;;;;;16.75;11.68;;;;;;;10.76;77.53;98920.22;10307567;28;20238;-71
2021/04/29 07:16:01;;;;;;;17.25;10.73;;;;;;;11.03;77.84;98921.84;10285866;28;20289;-71
2021/04/29 07:21:04;;;;;;;16.10;10.38;;;;;;;11.45;76.30;98921.81;10268147;28;20238;-70
2021/04/29 07:26:06;;;;;;;19.02;11.57;;;;;;;11.64;74.57;98927.88;10268885;28;20252;-70
2021/04/29 07:31:09;;;;;;;15.32;10.55;;;;;;;11.59;74.37;98925.69;10266551;28;20277;-70
2021/04/29 07:36:12;;;;;;;15.85;11.07;;;;;;;11.61;73.95;98925.53;10268319;28;20267;-71
2021/04/29 07:41:14;;;;;;;15.90;9.23;;;;;;;11.99;74.46;98931.28;10275232;28;20627;-70
2021/04/29 07:46:17;;;;;;;14.88;10.73;;;;;;;12.26;72.78;98932.75;10274361;28;20752;-70
2021/04/29 07:51:19;;;;;;;16.23;10.75;;;;;;;12.38;73.09;98936.81;10267375;28;20607;-70
2021/04/29 07:56:21;;;;;;;17.25;10.43;;;;;;;12.62;71.69;98921.63;10260989;28;20551;-70
2021/04/29 08:01:24;;;;;;;14.73;9.93;;;;;;;12.33;65.70;98933.78;10252802;28;20239;-70
2021/04/29 08:06:28;;;;;;;13.27;9.30;;;;;;;12.11;64.98;98933.44;10251881;28;20248;-70
2021/04/29 08:11:30;;;;;;;17.13;10.23;;;;;;;12.09;63.03;98930.06;10266556;28;20235;-70
2021/04/29 08:16:33;;;;;;;17.10;11.23;;;;;;;11.85;63.44;98944.38;10289785;28;20236;-70
2021/04/29 08:21:35;;;;;;;24.52;12.55;;;;;;;11.79;61.62;98949.56;10252779;28;20240;-70
2021/04/29 08:26:37;;;;;;;19.33;12.18;;;;;;;11.92;60.54;98948.06;10250362;28;21410;-69
2021/04/29 08:31:40;;;;;;;18.55;11.15;;;;;;;12.21;61.38;98949.44;10236957;28;20612;-70
2021/04/29 08:36:42;;;;;;;16.67;10.75;;;;;;;12.22;61.12;98952.94;10233098;28;20248;-70
2021/04/29 08:41:44;;;;;;;18.92;11.23;;;;;;;12.45;60.04;98953.09;10266288;28;20240;-70
2021/04/29 08:46:47;;;;;;;19.33;11.48;;;;;;;12.87;59.08;98946.63;10273266;28;20240;-70
2021/04/29 08:51:50;;;;;;;22.25;12.90;;;;;;;13.31;57.90;98936.13;10285780;28;20247;-70
2021/04/29 08:56:53;;;;;;;19.65;12.95;;;;;;;14.14;54.60;98943.47;10287542;28;20243;-71
2021/04/29 09:01:56;;;;;;;24.55;14.48;;;;;;;14.59;51.95;98938.19;10272561;28;20258;-69
2021/04/29 09:06:58;;;;;;;24.00;14.88;;;;;;;13.66;52.79;98937.44;10271141;28;20250;-70
2021/04/29 09:11:59;;;;;;;30.50;18.13;;;;;;;14.33;51.05;98936.72;10273577;28;20235;-70
2021/04/29 09:17:11;;;;;;;29.55;18.58;;;;;;;14.92;49.68;98926.97;10261068;28;20244;-71
2021/04/29 09:22:18;;;;;;;36.33;22.20;;;;;;;15.49;45.49;98915.41;10254104;28;20728;-71
2021/04/29 09:27:23;;;;;;;34.90;20.80;;;;;;;15.76;46.75;98929.22;10250629;28;20252;-70
2021/04/29 09:32:29;;;;;;;35.95;22.20;;;;;;;14.16;47.69;98951.41;10248473;28;21044;-70
2021/04/29 09:37:34;;;;;;;36.05;19.65;;;;;;;13.16;49.96;98945.97;10234151;28;20248;-70
2021/04/29 09:42:37;;;;;;;33.03;18.85;;;;;;;12.88;51.74;98940.19;10231293;28;20387;-70
2021/04/29 09:47:40;;;;;;;39.08;21.73;;;;;;;13.04;51.18;98940.97;10231194;28;20232;-71
2021/04/29 09:52:42;;;;;;;36.05;23.60;;;;;;;13.67;49.25;98941.81;10231263;28;20244;-71
2021/04/29 09:57:46;;;;;;;40.58;22.92;;;;;;;13.45;49.37;98946.19;10229969;28;20334;-70
2021/04/29 10:02:49;;;;;;;33.50;20.85;;;;;;;13.26;48.00;98944.72;10230201;28;20324;-70
2021/04/29 10:07:51;;;;;;;31.88;19.58;;;;;;;14.23;46.04;98940.69;10228359;28;20721;-72
2021/04/29 10:12:54;;;;;;;32.38;19.40;;;;;;;14.56;43.03;98947.50;10230382;28;20244;-71
2021/04/29 10:17:57;;;;;;;25.30;15.70;;;;;;;15.18;40.50;98945.41;10303363;28;20258;-71
2021/04/29 10:23:02;;;;;;;29.67;16.90;;;;;;;15.49;40.74;98942.47;10298044;28;20614;-71
2021/04/29 10:28:05;;;;;;;30.13;18.08;;;;;;;15.06;41.03;98939.66;10229646;28;20264;-71
2021/04/29 10:33:16;;;;;;;33.72;21.70;;;;;;;14.23;43.71;98941.53;10244072;28;20239;-71
2021/04/29 10:38:30;;;;;;;40.78;23.10;;;;;;;14.77;45.25;98940.50;10232724;28;20391;-71
2021/04/29 10:43:35;;;;;;;33.28;19.48;;;;;;;13.99;43.95;98950.69;10229725;28;20251;-71
2021/04/29 10:48:51;;;;;;;34.15;21.05;;;;;;;13.75;45.34;98964.38;10229746;28;20757;-71
2021/04/29 10:53:53;;;;;;;23.50;15.25;;;;;;;13.26;43.23;98970.88;10229066;28;20251;-70
2021/04/29 10:58:55;;;;;;;27.52;16.52;;;;;;;13.76;44.49;98955.25;10229008;28;20244;-71
2021/04/29 11:03:58;;;;;;;25.63;15.43;;;;;;;15.09;43.41;98974.44;10243792;28;20232;-70
2021/04/29 11:09:01;;;;;;;33.92;19.50;;;;;;;15.38;42.10;98957.34;10243530;28;20239;-72
2021/04/29 11:14:05;;;;;;;39.67;23.40;;;;;;;14.50;43.16;98963.59;10241044;28;20889;-71
2021/04/29 11:19:08;;;;;;;20.55;13.18;;;;;;;14.31;38.72;98959.53;10306594;28;20619;-71
2021/04/29 11:24:12;;;;;;;32.15;20.17;;;;;;;14.91;40.29;98982.06;10323388;28;20242;-71
2021/04/29 11:29:14;;;;;;;29.63;16.80;;;;;;;15.03;40.98;98978.72;10306642;28;20587;-69
2021/04/29 11:34:17;;;;;;;25.67;15.75;;;;;;;15.31;39.31;98967.22;10310529;28;20857;-70
2021/04/29 11:39:20;;;;;;;30.90;15.73;;;;;;;15.85;37.43;98956.00;10306534;28;20239;-70
2021/04/29 11:44:23;;;;;;;25.92;15.43;;;;;;;15.95;36.13;98947.53;10309183;28;20234;-70
2021/04/29 11:49:27;;;;;;;30.48;17.23;;;;;;;16.49;36.16;98949.69;10306368;28;20330;-71
2021/04/29 11:54:29;;;;;;;25.85;13.98;;;;;;;16.31;35.53;98966.41;10305480;28;20307;-70
2021/04/29 11:59:32;;;;;;;25.90;16.58;;;;;;;16.76;36.52;98958.81;10305830;28;20239;-70
2021/04/29 12:04:35;;;;;;;22.70;12.98;;;;;;;17.19;35.20;98960.53;10304469;28;20274;-71
2021/04/29 12:09:37;;;;;;;28.63;17.63;;;;;;;16.06;35.56;98957.84;10299083;28;20246;-71
2021/04/29 12:14:39;;;;;;;25.02;14.23;;;;;;;15.35;36.76;98967.69;10287547;28;20242;-71
2021/04/29 12:19:48;;;;;;;29.83;15.57;;;;;;;16.69;34.78;98968.78;10265388;28;20242;-71
2021/04/29 12:24:51;;;;;;;16.92;10.07;;;;;;;16.50;33.55;98983.03;10270074;28;20231;-71
2021/04/29 12:30:06;;;;;;;17.88;11.60;;;;;;;15.78;34.94;98968.59;10269592;28;20725;-70
2021/04/29 12:35:10;;;;;;;29.38;18.17;;;;;;;14.30;39.09;98990.25;10270239;28;20697;-70
2021/04/29 12:40:23;;;;;;;29.67;14.77;;;;;;;13.45;40.80;99008.22;10270955;28;20254;-71
2021/04/29 12:45:25;;;;;;;29.77;17.90;;;;;;;14.89;39.17;98994.94;10261289;28;20236;-71
2021/04/29 12:50:28;;;;;;;29.92;17.73;;;;;;;15.77;35.89;98990.44;10259903;28;20244;-71
2021/04/29 12:55:40;;;;;;;28.90;16.73;;;;;;;15.37;35.80;98992.72;10256197;28;20235;-71
2021/04/29 13:00:49;;;;;;;30.40;15.52;;;;;;;14.56;37.52;99000.69;10269830;28;20255;-70
2021/04/29 13:06:00;;;;;;;24.77;14.63;;;;;;;14.88;37.48;99006.78;10273565;28;20258;-71
2021/04/29 13:11:02;;;;;;;30.05;16.73;;;;;;;15.15;37.14;99000.72;10260215;28;20319;-71
2021/04/29 13:16:04;;;;;;;31.02;19.48;;;;;;;14.82;38.10;99000.25;10269014;28;20244;-71
2021/04/29 13:21:07;;;;;;;28.90;18.67;;;;;;;15.57;38.38;99009.19;10240402;28;20236;-70
2021/04/29 13:26:13;;;;;;;30.95;16.77;;;;;;;13.82;39.61;99048.97;10213867;28;20600;-70
2021/04/29 13:31:15;;;;;;;29.92;17.42;;;;;;;15.43;38.05;99009.00;10256732;28;20398;-69
2021/04/29 13:36:19;;;;;;;22.30;12.93;;;;;;;15.05;36.16;98989.34;10270325;28;20242;-70
2021/04/29 13:41:21;;;;;;;23.27;14.05;;;;;;;16.39;35.14;98999.84;10249886;28;20243;-70
2021/04/29 13:46:23;;;;;;;23.30;13.13;;;;;;;14.62;37.61;98989.16;10247807;28;20724;-70
2021/04/29 13:51:26;;;;;;;31.13;17.70;;;;;;;13.81;40.34;98988.78;10251682;28;20282;-69
2021/04/29 13:56:28;;;;;;;32.92;19.05;;;;;;;12.91;42.70;99018.00;10265477;28;20244;-70
2021/04/29 14:01:29;;;;;;;25.83;14.35;;;;;;;12.67;43.51;99016.19;10266572;28;20239;-70
2021/04/29 14:06:33;;;;;;;27.80;17.50;;;;;;;12.42;44.33;99027.00;10247374;28;20270;-70
2021/04/29 14:11:35;;;;;;;27.38;16.95;;;;;;;12.39;45.74;99030.03;10264021;28;20274;-70
2021/04/29 14:16:37;;;;;;;25.75;15.73;;;;;;;13.40;43.30;99024.06;10296064;28;20238;-70
2021/04/29 14:21:40;;;;;;;23.85;15.07;;;;;;;13.92;43.48;99038.81;10258431;28;21374;-70
2021/04/29 14:26:42;;;;;;;25.75;17.05;;;;;;;14.63;43.14;99052.13;10267495;28;20239;-70
2021/04/29 14:31:44;;;;;;;16.15;12.23;;;;;;;15.28;40.08;99048.75;10267472;28;20232;-70
2021/04/29 14:36:46;;;;;;;16.92;10.43;;;;;;;14.60;40.79;99067.69;10267356;28;20371;-70
2021/04/29 14:41:49;;;;;;;18.63;12.80;;;;;;;14.62;41.74;99063.94;10283799;28;20247;-70
2021/04/29 14:46:51;;;;;;;20.73;12.98;;;;;;;13.79;43.56;99055.56;10268293;28;20250;-70
2021/04/29 14:51:54;;;;;;;17.65;12.05;;;;;;;12.34;46.39;99056.63;10269818;28;20231;-70
2021/04/29 14:56:56;;;;;;;20.52;12.23;;;;;;;11.92;48.82;99076.38;10249618;28;20240;-70
2021/04/29 15:01:58;;;;;;;23.92;13.02;;;;;;;11.88;48.97;99073.19;10239850;28;20243;-70
2021/04/29 15:07:01;;;;;;;20.30;12.45;;;;;;;12.20;46.83;99074.25;10245346;28;20255;-70
2021/04/29 15:12:05;;;;;;;16.08;10.82;;;;;;;12.42;45.54;99088.94;10246484;28;20568;-70
2021/04/29 15:17:07;;;;;;;14.13;7.82;;;;;;;13.16;41.54;99092.38;10248080;28;20243;-70
2021/04/29 15:22:11;;;;;;;14.65;9.93;;;;;;;12.78;44.15;99110.13;10235153;28;20227;-70
2021/04/29 15:27:13;;;;;;;14.10;7.13;;;;;;;12.09;46.34;99101.47;10247971;28;20235;-70
2021/04/29 15:32:15;;;;;;;10.48;7.03;;;;;;;12.87;43.63;99129.84;10246736;28;20228;-70
2021/04/29 15:37:18;;;;;;;8.75;5.28;;;;;;;12.59;43.82;99149.91;10263817;28;20701;-70
2021/04/29 15:42:20;;;;;;;19.33;11.27;;;;;;;10.87;49.07;99153.66;10262498;28;22410;-70
2021/04/29 15:47:21;;;;;;;16.17;8.90;;;;;;;10.74;50.48;99169.31;10252535;28;20337;-70
2021/04/29 15:52:25;;;;;;;19.73;12.93;;;;;;;11.10;50.93;99156.66;10264556;28;20871;-71
2021/04/29 15:57:30;;;;;;;18.35;11.73;;;;;;;10.29;53.21;99205.97;10268241;28;20470;-70
2021/04/29 16:02:32;;;;;;;13.45;6.45;;;;;;;9.68;56.12;99203.84;10269551;28;20239;-70
2021/04/29 16:07:35;;;;;;;9.57;6.55;;;;;;;9.12;57.30;99223.47;10272404;28;20254;-70
2021/04/29 16:12:39;;;;;;;11.15;6.55;;;;;;;8.76;58.90;99231.25;10271216;28;20266;-70
2021/04/29 16:17:41;;;;;;;11.80;7.85;;;;;;;8.39;60.20;99240.78;10290622;28;20906;-70
2021/04/29 16:22:44;;;;;;;6.55;4.60;;;;;;;8.20;61.80;99259.47;10270269;28;20890;-70
2021/04/29 16:27:46;;;;;;;12.95;8.27;;;;;;;8.23;62.98;99264.53;10270695;28;20235;-70
2021/04/29 16:32:48;;;;;;;15.73;9.80;;;;;;;7.95;63.85;99271.47;10255527;28;20234;-70
2021/04/29 16:37:51;;;;;;;20.15;13.00;;;;;;;7.41;65.19;99261.91;10217563;28;20248;-70
2021/04/29 16:42:54;;;;;;;21.10;12.48;;;;;;;7.79;64.94;99280.00;10236061;28;20227;-70
2021/04/29 16:47:56;;;;;;;21.02;13.10;;;;;;;7.46;68.79;99289.06;10239365;28;20244;-70
2021/04/29 16:52:59;;;;;;;14.15;9.32;;;;;;;6.84;73.57;99312.03;10248525;28;20240;-70
2021/04/29 16:58:02;;;;;;;17.23;10.70;;;;;;;6.73;73.67;99299.59;10268945;28;20240;-70
2021/04/29 17:03:04;;;;;;;11.90;7.20;;;;;;;6.40;72.68;99317.38;10272582;28;20243;-70
2021/04/29 17:08:07;;;;;;;9.77;6.25;;;;;;;6.44;72.16;99323.28;10270287;28;20236;-71
2021/04/29 17:13:09;;;;;;;9.95;6.30;;;;;;;6.47;69.81;99331.03;10269907;28;21350;-70
2021/04/29 17:18:11;;;;;;;10.88;7.65;;;;;;;7.05;68.07;99330.81;10270509;28;20236;-70
2021/04/29 17:23:15;;;;;;;10.18;5.90;;;;;;;7.10;66.72;99330.41;10230724;28;20252;-72
2021/04/29 17:28:17;;;;;;;8.75;6.30;;;;;;;6.97;65.09;99335.94;10245482;28;20244;-70
2021/04/29 17:33:19;;;;;;;5.28;4.22;;;;;;;6.81;65.89;99336.31;10229749;28;20240;-71
2021/04/29 17:38:28;;;;;;;12.88;9.18;;;;;;;6.62;67.49;99372.50;10251906;28;20238;-70
2021/04/29 17:43:29;;;;;;;11.32;7.13;;;;;;;6.48;66.99;99355.94;10307743;28;20235;-70
2021/04/29 17:48:31;;;;;;;11.48;7.07;;;;;;;6.52;66.17;99360.03;10308301;28;20238;-70
2021/04/29 17:53:34;;;;;;;10.38;7.07;;;;;;;6.26;65.96;99352.31;10321505;28;20239;-70
2021/04/29 17:58:36;;;;;;;9.18;6.70;;;;;;;6.46;64.71;99372.03;10307347;28;20243;-70
2021/04/29 18:03:50;;;;;;;10.30;6.20;;;;;;;6.88;63.76;99384.75;10307492;28;20874;-70
2021/04/29 18:08:53;;;;;;;12.63;7.10;;;;;;;6.56;65.11;99390.84;10308440;28;20795;-70
2021/04/29 18:13:55;;;;;;;11.02;5.47;;;;;;;6.01;66.33;99403.19;10254893;28;20243;-70
2021/04/29 18:18:57;;;;;;;12.70;7.57;;;;;;;6.09;66.27;99406.13;10307825;28;20231;-70
2021/04/29 18:24:00;;;;;;;13.45;7.57;;;;;;;5.98;66.14;99400.75;10307537;28;20227;-70
2021/04/29 18:29:02;;;;;;;8.32;5.97;;;;;;;6.34;64.98;99405.03;10307740;28;20246;-70
2021/04/29 18:34:04;;;;;;;11.80;8.40;;;;;;;6.13;64.77;99402.22;10307342;28;20656;-70
2021/04/29 18:39:07;;;;;;;11.48;8.75;;;;;;;6.44;64.20;99415.81;10308141;28;20250;-70
2021/04/29 18:44:09;;;;;;;15.50;9.95;;;;;;;6.77;62.89;99428.28;10304748;28;20246;-70
2021/04/29 18:49:16;;;;;;;14.73;9.65;;;;;;;6.70;63.57;99438.63;10268238;28;20251;-70
2021/04/29 18:54:19;;;;;;;16.30;8.40;;;;;;;6.71;63.42;99458.97;10270844;28;20235;-71
2021/04/29 18:59:20;;;;;;;16.67;9.35;;;;;;;6.56;64.13;99428.19;10268774;28;21353;-71
2021/04/29 19:04:24;;;;;;;10.55;7.25;;;;;;;6.05;64.46;99436.63;10269784;28;20615;-70
2021/04/29 19:09:27;;;;;;;9.57;7.13;;;;;;;6.11;64.71;99454.81;10258606;28;20235;-70
2021/04/29 19:14:30;;;;;;;12.73;6.88;;;;;;;6.16;64.95;99464.16;10247583;28;20235;-70
2021/04/29 19:19:32;;;;;;;14.40;10.23;;;;;;;6.50;64.26;99468.69;10266596;28;20240;-70
2021/04/29 19:24:34;;;;;;;15.00;8.70;;;;;;;6.51;64.71;99484.59;10236698;28;20599;-71
2021/04/29 19:29:36;;;;;;;13.55;9.02;;;;;;;6.15;66.70;99494.47;10225060;28;20236;-71
2021/04/29 19:34:38;;;;;;;15.15;9.57;;;;;;;5.78;69.40;99498.22;10226747;28;20236;-70
2021/04/29 19:39:41;;;;;;;13.98;7.65;;;;;;;5.45;70.53;99505.94;10227369;28;20270;-70
2021/04/29 19:44:43;;;;;;;19.65;11.63;;;;;;;5.71;69.27;99513.84;10225353;28;20236;-70
2021/04/29 19:49:45;;;;;;;18.40;11.45;;;;;;;5.43;70.21;99513.22;10225621;28;20617;-70
2021/04/29 19:54:48;;;;;;;17.33;11.20;;;;;;;5.71;69.72;99525.34;10226727;28;20243;-70
2021/04/29 19:59:51;;;;;;;20.88;10.27;;;;;;;5.44;70.90;99525.56;10225823;28;20634;-71
2021/04/29 20:04:53;;;;;;;11.45;7.35;;;;;;;5.41;72.11;99556.91;10226161;28;20221;-70
2021/04/29 20:09:56;;;;;;;19.75;11.40;;;;;;;5.01;75.30;99554.44;10226196;28;20236;-70
2021/04/29 20:14:58;;;;;;;24.10;11.38;;;;;;;4.95;77.56;99537.06;10252573;28;20257;-71
2021/04/29 20:19:59;;;;;;;17.52;9.25;;;;;;;4.62;78.86;99549.13;10305416;28;20246;-72
2021/04/29 20:25:03;;;;;;;20.98;13.02;;;;;;;4.54;80.33;99542.63;10305992;28;20700;-72
2021/04/29 20:30:07;;;;;;;20.75;11.57;;;;;;;4.46;80.65;99540.50;10302697;28;20941;-71
2021/04/29 20:35:10;;;;;;;21.45;10.38;;;;;;;4.55;80.36;99545.19;10292308;28;20258;-72
2021/04/29 20:40:13;;;;;;;15.37;9.07;;;;;;;4.56;80.26;99551.38;10246791;28;20236;-72
2021/04/29 20:45:16;;;;;;;17.23;10.80;;;;;;;4.12;81.12;99552.59;10228366;28;20238;-72
2021/04/29 20:50:18;;;;;;;25.93;12.53;;;;;;;4.34;80.40;99547.50;10231657;28;20339;-71
2021/04/29 20:55:24;;;;;;;23.33;12.40;;;;;;;4.35;80.64;99559.84;10243854;28;20231;-71
2021/04/29 21:00:27;;;;;;;25.60;14.32;;;;;;;4.54;80.10;99556.78;10272076;28;20375;-71
2021/04/29 21:05:29;;;;;;;20.00;12.10;;;;;;;4.42;79.68;99554.97;10269800;28;20570;-69
2021/04/29 21:10:32;;;;;;;17.47;9.37;;;;;;;4.23;79.53;99555.38;10272335;28;20246;-69
2021/04/29 21:15:34;;;;;;;24.42;15.00;;;;;;;4.71;78.67;99560.91;10284701;28;20232;-69
2021/04/29 21:20:36;;;;;;;25.08;14.07;;;;;;;4.51;79.79;99567.63;10251013;28;20239;-70
2021/04/29 21:25:39;;;;;;;28.13;15.98;;;;;;;4.69;79.53;99568.19;10221756;28;20237;-70
2021/04/29 21:30:42;;;;;;;27.80;14.40;;;;;;;4.44;80.08;99562.84;10208182;28;20396;-70
2021/04/29 21:35:44;;;;;;;19.98;10.15;;;;;;;4.51;79.80;99580.09;10194140;28;20244;-70
2021/04/29 21:40:47;;;;;;;18.23;10.23;;;;;;;4.31;80.34;99576.97;10192106;28;20236;-70
2021/04/29 21:45:51;;;;;;;21.23;10.63;;;;;;;4.43;80.61;99583.25;10190926;28;20240;-70
2021/04/29 21:50:55;;;;;;;22.40;13.80;;;;;;;4.46;80.87;99593.69;10192740;28;20324;-70
2021/04/29 21:55:58;;;;;;;28.37;10.33;;;;;;;4.46;80.73;99595.50;10189665;28;20726;-70
2021/04/29 22:01:00;;;;;;;21.87;11.37;;;;;;;4.48;80.64;99591.78;10189927;28;20245;-70
2021/04/29 22:06:03;;;;;;;20.92;11.30;;;;;;;4.36;80.76;99596.13;10192754;28;20252;-71
2021/04/29 22:11:07;;;;;;;18.20;8.63;;;;;;;4.46;80.90;99596.34;10229374;28;20263;-70
2021/04/29 22:16:09;;;;;;;28.88;14.90;;;;;;;4.40;80.92;99600.28;10276529;28;20239;-70
2021/04/29 22:21:11;;;;;;;26.50;13.65;;;;;;;4.60;80.78;99622.84;10311446;28;20231;-71
2021/04/29 22:26:15;;;;;;;25.43;12.80;;;;;;;4.52;81.45;99613.69;10308908;28;20257;-70
2021/04/29 22:31:17;;;;;;;29.88;16.27;;;;;;;4.42;81.71;99634.75;10324453;28;20247;-70
2021/04/29 22:36:19;;;;;;;21.63;11.43;;;;;;;4.62;80.82;99618.28;10308291;28;20381;-70
2021/04/29 22:41:22;;;;;;;30.65;14.90;;;;;;;4.75;80.94;99626.28;10286254;28;20232;-70
2021/04/29 22:46:31;;;;;;;30.15;16.17;;;;;;;4.82;80.85;99621.38;10228127;28;20290;-70
2021/04/29 22:51:35;;;;;;;24.00;11.02;;;;;;;4.70;80.97;99632.88;10227410;28;20949;-70
2021/04/29 22:56:38;;;;;;;21.80;11.40;;;;;;;4.72;80.95;99637.13;10228423;28;20228;-70
2021/04/29 23:01:40;;;;;;;23.13;11.87;;;;;;;4.55;81.50;99640.94;10226300;28;20235;-70
2021/04/29 23:06:42;;;;;;;22.50;12.05;;;;;;;4.69;81.23;99642.66;10227047;28;20240;-70
2021/04/29 23:11:44;;;;;;;25.30;14.63;;;;;;;4.73;81.49;99638.81;10228165;28;20244;-70